Time;durP1;ratioP1;P1;durP2;ratioP2;P2;SDS_P1;SDS_P2;PMS_P1;PMS_P2;Temp;Humidity;BMP_temperature;BMP_pressure;BME280_temperature;BME280_humidity;BME280_pressure;Samples;Min_cycle;Max_cycle;Signal;HPM_P1;HPM_P2
2021/09/01 00:00:00;;;;;;;7.28;6.28;;;;;;;13.08;95.90;96436.45;1684575;84;21034;-80
2021/09/01 00:02:26;;;;;;;9.65;8.03;;;;;;;13.05;96.10;96447.28;1684649;84;21442;-80
2021/09/01 00:04:52;;;;;;;11.15;9.98;;;;;;;13.03;96.17;96447.98;1684623;84;21078;-80
2021/09/01 00:07:18;;;;;;;6.90;6.17;;;;;;;13.07;96.39;96451.30;1695470;84;21245;-80
2021/09/01 00:09:44;;;;;;;6.67;5.78;;;;;;;13.10;96.31;96445.69;1677812;83;21027;-80
2021/09/01 00:12:10;;;;;;;5.20;4.70;;;;;;;13.12;96.25;96445.48;1677515;84;21026;-80
2021/09/01 00:14:36;;;;;;;6.80;5.75;;;;;;;13.11;96.16;96448.59;1693156;84;21063;-79
2021/09/01 00:17:02;;;;;;;6.28;5.67;;;;;;;13.11;96.20;96451.70;1692837;84;21579;-81
2021/09/01 00:19:28;;;;;;;6.35;5.60;;;;;;;13.12;96.30;96454.62;1690779;84;21068;-80
2021/09/01 00:21:54;;;;;;;7.87;7.08;;;;;;;13.16;96.32;96451.41;1685238;84;21035;-80
2021/09/01 00:24:20;;;;;;;7.03;6.33;;;;;;;13.21;96.49;96453.48;1691797;84;21062;-80
2021/09/01 00:26:46;;;;;;;7.65;6.95;;;;;;;13.19;96.14;96453.69;1691618;84;20991;-80
2021/09/01 00:29:12;;;;;;;7.90;7.00;;;;;;;13.18;96.18;96459.11;1685091;84;21441;-80
2021/09/01 00:31:37;;;;;;;9.00;7.80;;;;;;;13.17;96.24;96460.84;1689412;84;20929;-80
2021/09/01 00:34:03;;;;;;;8.63;6.95;;;;;;;13.17;96.14;96463.96;1697783;84;21047;-80
2021/09/01 00:36:29;;;;;;;8.10;7.12;;;;;;;13.15;96.21;96461.55;1686924;84;21042;-80
2021/09/01 00:38:55;;;;;;;7.83;7.03;;;;;;;13.18;96.59;96472.95;1688125;84;21097;-80
2021/09/01 00:41:25;;;;;;;8.28;7.30;;;;;;;13.16;96.20;96474.89;1684068;84;21118;-80
2021/09/01 00:43:52;;;;;;;7.62;6.83;;;;;;;13.14;96.27;96479.51;1669571;84;21096;-80
2021/09/01 00:46:19;;;;;;;6.33;5.72;;;;;;;13.15;96.31;96473.29;1668850;84;22232;-80
2021/09/01 00:48:45;;;;;;;7.08;6.37;;;;;;;13.16;96.50;96483.22;1677913;85;21409;-80
2021/09/01 00:51:11;;;;;;;7.25;6.55;;;;;;;13.15;96.17;96472.48;1677651;84;21098;-80
2021/09/01 00:53:42;;;;;;;7.10;6.37;;;;;;;13.14;96.14;96488.64;1685934;84;21107;-80
2021/09/01 00:56:08;;;;;;;7.22;6.53;;;;;;;13.13;96.24;96489.64;1665869;85;21024;-80
2021/09/01 00:58:36;;;;;;;7.03;5.72;;;;;;;13.12;96.17;96489.34;1684685;84;21039;-80
2021/09/01 01:03:38;;;;;;;6.62;5.72;;;;;;;13.12;96.23;96487.23;1673279;84;21035;-80
2021/09/01 01:06:04;;;;;;;7.47;6.67;;;;;;;13.12;96.19;96488.03;1692243;84;21070;-80
2021/09/01 01:08:30;;;;;;;7.97;6.60;;;;;;;13.16;96.28;96499.68;1684705;84;21032;-80
2021/09/01 01:10:57;;;;;;;7.87;7.08;;;;;;;13.16;96.07;96491.05;1675420;84;21086;-80
2021/09/01 01:13:28;;;;;;;7.87;7.10;;;;;;;13.17;96.33;96484.33;1691856;84;21052;-80
2021/09/01 01:15:57;;;;;;;8.63;7.72;;;;;;;13.15;96.09;96485.03;1700239;84;21607;-80
2021/09/01 01:18:23;;;;;;;7.15;6.45;;;;;;;13.18;96.12;96491.72;1699045;83;21094;-80
2021/09/01 01:20:49;;;;;;;6.83;5.50;;;;;;;13.19;96.07;96491.52;1679773;84;21070;-80
2021/09/01 01:23:18;;;;;;;5.67;4.35;;;;;;;13.19;95.76;96488.11;1687069;84;20987;-80
2021/09/01 01:25:44;;;;;;;4.35;3.62;;;;;;;13.16;95.71;96494.46;1692091;84;21030;-80
2021/09/01 01:28:10;;;;;;;4.72;3.58;;;;;;;13.13;95.68;96497.97;1704076;84;21038;-80
2021/09/01 01:30:36;;;;;;;4.92;4.00;;;;;;;13.08;95.57;96499.06;1687280;84;21002;-80
2021/09/01 01:33:03;;;;;;;5.03;4.30;;;;;;;13.05;95.58;96504.17;1667561;84;20999;-80
2021/09/01 01:35:36;;;;;;;6.17;5.45;;;;;;;13.00;95.49;96506.53;1683056;84;21074;-80
2021/09/01 01:38:08;;;;;;;7.22;6.28;;;;;;;12.96;95.57;96502.70;1694709;84;21442;-80
2021/09/01 01:40:34;;;;;;;5.00;4.50;;;;;;;12.94;95.80;96500.80;1703806;84;21059;-80
2021/09/01 01:43:00;;;;;;;5.50;4.78;;;;;;;12.92;95.84;96500.19;1700723;84;21067;-80
2021/09/01 01:45:38;;;;;;;4.67;3.92;;;;;;;12.90;95.73;96506.91;1691594;84;21373;-80
2021/09/01 01:48:05;;;;;;;3.92;3.52;;;;;;;12.87;95.91;96501.28;1664031;85;21091;-80
2021/09/01 01:50:31;;;;;;;3.95;3.40;;;;;;;12.84;95.73;96505.55;1677460;84;21053;-79
2021/09/01 01:52:57;;;;;;;3.90;3.33;;;;;;;12.83;95.90;96503.44;1674858;84;21056;-80
2021/09/01 01:55:23;;;;;;;4.00;3.50;;;;;;;12.82;95.87;96503.63;1707467;84;21354;-80
2021/09/01 01:57:49;;;;;;;3.33;3.00;;;;;;;12.83;96.06;96503.94;1668314;84;21055;-80
2021/09/01 02:00:15;;;;;;;3.55;2.67;;;;;;;12.83;96.34;96504.74;1674007;84;21083;-79
2021/09/01 02:02:41;;;;;;;5.00;2.98;;;;;;;12.79;96.11;96513.15;1684036;84;21059;-80
2021/09/01 02:05:08;;;;;;;3.80;3.22;;;;;;;12.81;96.52;96504.63;1699202;84;21008;-80
2021/09/01 02:07:34;;;;;;;3.67;2.98;;;;;;;12.83;96.37;96511.77;1678443;84;21539;-80
2021/09/01 02:10:00;;;;;;;4.28;3.45;;;;;;;12.81;96.23;96510.66;1699223;84;21042;-79
2021/09/01 02:12:29;;;;;;;4.70;4.03;;;;;;;12.84;96.24;96510.27;1688388;84;21031;-80
2021/09/01 02:15:01;;;;;;;4.00;3.60;;;;;;;12.85;96.23;96517.59;1693497;84;21057;-80
2021/09/01 02:17:27;;;;;;;4.83;4.20;;;;;;;12.80;95.84;96517.37;1693010;84;21027;-80
2021/09/01 02:19:53;;;;;;;6.17;5.12;;;;;;;12.75;95.69;96523.16;1707478;84;20988;-80
2021/09/01 02:22:19;;;;;;;7.10;5.78;;;;;;;12.73;95.78;96532.18;1705548;84;21030;-80
2021/09/01 02:24:45;;;;;;;5.55;5.05;;;;;;;12.68;95.75;96524.91;1696344;84;21070;-80
2021/09/01 02:27:11;;;;;;;6.12;4.47;;;;;;;12.70;95.88;96526.85;1690365;84;21075;-80
2021/09/01 02:29:36;;;;;;;5.33;4.83;;;;;;;12.67;95.63;96521.19;1692396;84;21070;-80
2021/09/01 02:32:03;;;;;;;6.55;5.10;;;;;;;12.62;95.49;96535.61;1688524;84;21043;-80
2021/09/01 02:34:29;;;;;;;6.22;5.08;;;;;;;12.58;95.61;96525.27;1686193;84;21010;-80
2021/09/01 02:36:54;;;;;;;5.60;5.00;;;;;;;12.59;95.72;96524.27;1683024;84;21103;-80
2021/09/01 02:39:20;;;;;;;6.85;5.08;;;;;;;12.62;95.85;96528.29;1683470;84;21202;-80
2021/09/01 02:41:46;;;;;;;5.92;5.33;;;;;;;12.60;95.81;96528.48;1684059;84;21446;-80
2021/09/01 02:44:12;;;;;;;5.80;5.25;;;;;;;12.59;95.72;96527.38;1684264;84;21095;-80
2021/09/01 02:46:38;;;;;;;5.00;4.50;;;;;;;12.59;95.82;96526.88;1705481;84;21158;-80
2021/09/01 02:49:04;;;;;;;5.30;4.80;;;;;;;12.61;95.81;96525.37;1704373;84;21020;-80
2021/09/01 02:51:29;;;;;;;5.10;4.58;;;;;;;12.61;95.82;96525.37;1695051;84;21435;-80
2021/09/01 02:53:55;;;;;;;6.17;5.37;;;;;;;12.62;95.77;96530.90;1646398;85;21101;-80
2021/09/01 02:56:21;;;;;;;5.40;4.80;;;;;;;12.58;95.79;96536.99;1691940;84;21448;-80
2021/09/01 02:58:47;;;;;;;5.67;4.08;;;;;;;12.55;95.64;96532.17;1705858;84;20992;-80
2021/09/01 03:01:12;;;;;;;3.77;3.47;;;;;;;12.56;95.87;96530.36;1698588;84;21149;-80
2021/09/01 03:03:38;;;;;;;5.22;4.72;;;;;;;12.52;95.78;96536.43;1696026;84;21147;-80
2021/09/01 03:06:04;;;;;;;6.70;5.28;;;;;;;12.49;95.87;96538.12;1706415;84;21052;-80
2021/09/01 03:08:29;;;;;;;6.12;5.28;;;;;;;12.52;96.05;96540.84;1699750;84;21437;-80
2021/09/01 03:10:55;;;;;;;7.12;6.42;;;;;;;12.49;96.07;96535.52;1692274;84;21391;-80
2021/09/01 03:13:22;;;;;;;7.55;6.67;;;;;;;12.50;96.21;96542.83;1688189;84;21093;-80
2021/09/01 03:15:47;;;;;;;5.75;5.15;;;;;;;12.54;96.29;96544.89;1684543;84;21405;-80
2021/09/01 03:18:13;;;;;;;5.37;4.20;;;;;;;12.56;96.11;96548.61;1686506;84;21102;-80
2021/09/01 03:20:39;;;;;;;6.15;4.97;;;;;;;12.55;96.03;96545.20;1695762;84;21039;-80
2021/09/01 03:23:05;;;;;;;5.15;4.65;;;;;;;12.54;95.96;96546.69;1670509;84;21166;-80
2021/09/01 03:25:31;;;;;;;6.40;5.78;;;;;;;12.53;96.02;96553.70;1705327;84;21095;-80
2021/09/01 03:27:59;;;;;;;6.08;5.42;;;;;;;12.56;96.15;96549.91;1703374;84;21528;-80
2021/09/01 03:30:24;;;;;;;4.92;4.40;;;;;;;12.59;96.18;96552.94;1701772;84;21138;-80
2021/09/01 03:32:50;;;;;;;4.10;3.70;;;;;;;12.63;96.22;96546.34;1697499;84;21023;-80
2021/09/01 03:35:15;;;;;;;4.65;4.22;;;;;;;12.62;96.18;96553.05;1690750;84;21059;-80
2021/09/01 03:37:41;;;;;;;4.33;3.92;;;;;;;12.61;96.04;96561.88;1707348;84;21119;-80
2021/09/01 03:40:08;;;;;;;4.58;4.10;;;;;;;12.59;96.02;96559.45;1670703;84;21474;-80
2021/09/01 03:42:34;;;;;;;5.78;5.17;;;;;;;12.56;96.06;96559.03;1707699;84;21458;-80
2021/09/01 03:45:00;;;;;;;6.75;5.25;;;;;;;12.53;96.12;96560.22;1689996;83;21068;-80
2021/09/01 03:47:26;;;;;;;5.95;5.35;;;;;;;12.52;96.13;96563.80;1696476;84;21062;-80
2021/09/01 03:49:52;;;;;;;5.00;4.50;;;;;;;12.53;96.26;96569.84;1688254;84;20998;-80
2021/09/01 03:52:18;;;;;;;5.03;4.60;;;;;;;12.52;96.05;96571.62;1692944;84;21414;-80
2021/09/01 03:54:43;;;;;;;6.33;4.37;;;;;;;12.54;96.13;96574.06;1692942;84;20978;-80
2021/09/01 03:57:09;;;;;;;5.55;4.95;;;;;;;12.51;96.07;96581.73;1688181;84;21057;-80
2021/09/01 03:59:35;;;;;;;4.85;4.12;;;;;;;12.50;96.15;96578.82;1701842;84;21042;-80
2021/09/01 04:02:01;;;;;;;5.60;5.10;;;;;;;12.47;96.14;96575.80;1694143;84;21106;-80
2021/09/01 04:04:27;;;;;;;5.22;4.70;;;;;;;12.47;96.20;96581.81;1660753;85;21067;-80
2021/09/01 04:06:52;;;;;;;5.67;5.15;;;;;;;12.47;96.37;96575.80;1691911;84;20953;-80
2021/09/01 04:09:18;;;;;;;5.78;5.17;;;;;;;12.42;96.18;96582.08;1682094;84;21039;-80
2021/09/01 04:11:44;;;;;;;5.87;5.28;;;;;;;12.39;96.27;96581.16;1697544;84;20995;-80
2021/09/01 04:14:10;;;;;;;5.30;4.80;;;;;;;12.36;96.37;96577.10;1702184;84;21051;-80
2021/09/01 04:16:36;;;;;;;5.92;5.33;;;;;;;12.37;96.68;96594.37;1689330;84;21062;-80
2021/09/01 04:19:01;;;;;;;5.90;5.25;;;;;;;12.37;96.45;96592.27;1702496;84;21020;-80
2021/09/01 04:21:27;;;;;;;5.25;4.75;;;;;;;12.35;96.37;96593.73;1707398;84;21330;-80
2021/09/01 04:23:53;;;;;;;5.97;5.40;;;;;;;12.35;96.72;96598.94;1703756;84;21124;-80
2021/09/01 04:26:18;;;;;;;6.17;5.25;;;;;;;12.33;96.39;96604.34;1707527;84;22177;-80
2021/09/01 04:28:45;;;;;;;6.70;5.28;;;;;;;12.35;96.50;96608.55;1707249;84;21418;-80
2021/09/01 04:31:10;;;;;;;7.20;6.30;;;;;;;12.33;96.50;96605.64;1688389;84;21059;-80
2021/09/01 04:33:36;;;;;;;7.17;6.53;;;;;;;12.37;96.62;96619.63;1684770;84;21047;-80
2021/09/01 04:36:02;;;;;;;7.22;6.53;;;;;;;12.37;96.57;96619.63;1693917;84;22516;-80
2021/09/01 04:38:28;;;;;;;6.45;5.85;;;;;;;12.39;96.63;96624.15;1684869;83;21063;-80
2021/09/01 04:40:53;;;;;;;8.23;7.42;;;;;;;12.36;96.42;96622.70;1680817;84;21112;-80
2021/09/01 04:43:19;;;;;;;7.35;6.67;;;;;;;12.36;96.43;96635.73;1632609;85;21486;-80
2021/09/01 04:45:45;;;;;;;8.28;7.47;;;;;;;12.39;96.55;96630.17;1672753;84;21457;-80
2021/09/01 04:48:11;;;;;;;7.80;7.10;;;;;;;12.39;96.42;96638.48;1703327;84;21003;-80
2021/09/01 04:50:37;;;;;;;9.23;8.33;;;;;;;12.43;96.50;96639.22;1701205;84;21387;-80
2021/09/01 04:53:02;;;;;;;9.03;7.35;;;;;;;12.44;96.35;96641.33;1686914;84;21063;-80
2021/09/01 04:55:28;;;;;;;8.95;8.05;;;;;;;12.43;96.21;96641.83;1685963;84;21449;-80
2021/09/01 04:57:54;;;;;;;9.08;8.18;;;;;;;12.43;96.19;96635.31;1697189;84;21047;-80
2021/09/01 05:00:21;;;;;;;6.97;6.28;;;;;;;12.45;96.34;96646.84;1703482;84;21042;-80
2021/09/01 05:02:47;;;;;;;7.97;7.17;;;;;;;12.40;96.14;96640.09;1705568;84;21083;-80
2021/09/01 05:05:12;;;;;;;10.78;9.50;;;;;;;12.37;96.20;96645.69;1699580;84;21090;-80
2021/09/01 05:07:39;;;;;;;8.43;7.47;;;;;;;12.36;96.25;96647.45;1688471;84;21049;-80
2021/09/01 05:10:05;;;;;;;9.33;8.18;;;;;;;12.39;96.26;96647.11;1690074;84;21019;-80
2021/09/01 05:12:31;;;;;;;8.65;7.78;;;;;;;12.41;96.28;96645.12;1707596;84;21023;-79
2021/09/01 05:14:57;;;;;;;9.70;8.70;;;;;;;12.46;96.39;96647.16;1693038;84;21630;-80
2021/09/01 05:17:23;;;;;;;8.33;7.08;;;;;;;12.47;96.19;96646.97;1708678;83;21085;-80
2021/09/01 05:19:49;;;;;;;9.28;8.10;;;;;;;12.51;96.08;96642.18;1683592;84;21079;-80
2021/09/01 05:22:21;;;;;;;7.75;6.92;;;;;;;12.54;96.25;96643.13;1669701;84;21150;-80
2021/09/01 05:25:08;;;;;;;8.05;7.25;;;;;;;12.54;95.83;96645.24;1685984;83;21030;-80
2021/09/01 05:27:40;;;;;;;5.92;5.33;;;;;;;12.47;95.86;96655.28;1695398;83;21106;-80
2021/09/01 05:30:15;;;;;;;6.17;5.58;;;;;;;12.43;95.77;96658.77;1684521;84;21076;-80
2021/09/01 05:32:47;;;;;;;6.75;6.03;;;;;;;12.38;95.73;96662.44;1672562;84;21098;-80
2021/09/01 05:35:12;;;;;;;7.95;7.20;;;;;;;12.36;95.82;96664.39;1695260;83;21116;-80
2021/09/01 05:37:38;;;;;;;5.72;5.12;;;;;;;12.39;96.08;96660.63;1690614;84;21039;-80
2021/09/01 05:40:06;;;;;;;5.75;5.12;;;;;;;12.41;95.93;96658.15;1682093;84;21318;-79
2021/09/01 05:42:32;;;;;;;6.10;5.50;;;;;;;12.38;95.83;96662.44;1717980;83;20993;-80
2021/09/01 05:45:00;;;;;;;6.28;5.67;;;;;;;12.37;95.88;96672.55;1703089;84;21038;-80
2021/09/01 05:47:25;;;;;;;8.40;7.65;;;;;;;12.36;95.82;96670.91;1698823;83;21018;-80
2021/09/01 05:49:53;;;;;;;6.87;5.92;;;;;;;12.36;96.18;96674.81;1700547;84;20968;-80
2021/09/01 05:52:20;;;;;;;6.87;6.17;;;;;;;12.36;96.14;96672.20;1689790;84;21014;-80
2021/09/01 05:54:47;;;;;;;6.40;5.80;;;;;;;12.36;96.18;96668.80;1693945;84;21002;-80
2021/09/01 05:57:16;;;;;;;5.42;4.87;;;;;;;12.37;96.08;96681.67;1689785;84;21043;-80
2021/09/01 05:59:50;;;;;;;9.23;8.33;;;;;;;12.36;96.10;96681.33;1681845;84;21516;-80
2021/09/01 06:02:25;;;;;;;4.97;4.47;;;;;;;12.35;95.99;96682.32;1678587;84;21046;-80
2021/09/01 06:04:51;;;;;;;5.60;5.10;;;;;;;12.31;95.91;96680.59;1710565;83;21130;-80
2021/09/01 06:07:18;;;;;;;5.80;5.20;;;;;;;12.29;96.13;96680.47;1706805;83;21008;-80
2021/09/01 06:09:45;;;;;;;6.85;6.05;;;;;;;12.24;96.04;96692.75;1687101;84;21019;-80
2021/09/01 06:12:20;;;;;;;6.58;6.03;;;;;;;12.24;96.24;96688.84;1683734;84;21016;-80
2021/09/01 06:14:46;;;;;;;5.53;4.55;;;;;;;12.26;96.44;96695.98;1723233;83;20924;-80
2021/09/01 06:17:12;;;;;;;5.60;4.92;;;;;;;12.27;96.52;96697.59;1684399;84;21035;-80
2021/09/01 06:19:38;;;;;;;7.25;6.55;;;;;;;12.26;96.47;96697.78;1696220;83;21003;-80
2021/09/01 06:22:05;;;;;;;6.25;5.28;;;;;;;12.22;96.22;96697.84;1719266;83;20988;-80
2021/09/01 06:24:33;;;;;;;6.87;6.17;;;;;;;12.20;96.44;96703.70;1707485;82;21377;-80
2021/09/01 06:27:00;;;;;;;8.15;7.35;;;;;;;12.21;96.60;96701.44;1715791;83;21585;-80
2021/09/01 06:29:26;;;;;;;9.20;7.58;;;;;;;12.23;96.59;96709.88;1684144;84;21109;-80
2021/09/01 06:31:52;;;;;;;5.87;5.10;;;;;;;12.23;96.50;96703.36;1693715;84;20976;-80
2021/09/01 06:34:17;;;;;;;8.58;6.70;;;;;;;12.25;96.84;96705.28;1704279;84;21024;-80
2021/09/01 06:36:43;;;;;;;8.98;8.08;;;;;;;12.20;96.67;96707.61;1688071;84;21398;-79
2021/09/01 06:39:09;;;;;;;8.78;7.97;;;;;;;12.15;96.66;96720.39;1680592;84;21067;-80
2021/09/01 06:41:34;;;;;;;8.70;7.75;;;;;;;12.16;96.92;96719.39;1672358;84;21014;-80
2021/09/01 06:44:00;;;;;;;8.95;8.15;;;;;;;12.17;96.87;96721.01;1691993;84;21043;-79
2021/09/01 06:46:26;;;;;;;8.93;8.03;;;;;;;12.17;96.98;96725.72;1698680;84;21028;-80
2021/09/01 06:48:52;;;;;;;9.30;8.30;;;;;;;12.16;96.82;96731.92;1686488;84;21418;-79
2021/09/01 06:51:18;;;;;;;10.20;9.00;;;;;;;12.17;96.93;96736.64;1695848;84;21075;-80
2021/09/01 06:53:44;;;;;;;12.00;10.80;;;;;;;12.19;96.92;96740.67;1691056;84;21038;-79
2021/09/01 06:56:09;;;;;;;9.38;8.38;;;;;;;12.24;97.06;96747.47;1688496;84;21377;-80
2021/09/01 06:58:36;;;;;;;10.72;9.63;;;;;;;12.28;96.96;96744.80;1707580;84;20984;-80
2021/09/01 07:01:03;;;;;;;11.45;9.53;;;;;;;12.30;96.79;96742.81;1703492;84;21330;-79
2021/09/01 07:03:28;;;;;;;11.30;9.83;;;;;;;12.32;96.68;96753.05;1686024;84;21116;-79
2021/09/01 07:05:54;;;;;;;9.75;8.60;;;;;;;12.33;96.64;96755.47;1693662;84;21019;-80
2021/09/01 07:08:23;;;;;;;9.63;8.73;;;;;;;12.30;96.75;96753.73;1702376;84;21018;-80
2021/09/01 07:10:50;;;;;;;12.63;11.33;;;;;;;12.30;96.65;96758.45;1686575;84;21081;-80
2021/09/01 07:13:17;;;;;;;8.48;7.67;;;;;;;12.30;96.83;96766.27;1678822;84;21098;-79
2021/09/01 07:15:43;;;;;;;8.50;7.55;;;;;;;12.32;96.78;96766.08;1705750;84;21167;-79
2021/09/01 07:18:09;;;;;;;8.30;7.50;;;;;;;12.27;96.52;96768.44;1691950;84;21101;-80
2021/09/01 07:20:35;;;;;;;7.75;6.95;;;;;;;12.32;96.97;96776.50;1684703;84;21006;-79
2021/09/01 07:23:01;;;;;;;7.87;7.17;;;;;;;12.33;96.82;96775.02;1695944;84;21015;-80
2021/09/01 07:25:27;;;;;;;8.50;7.12;;;;;;;12.37;96.77;96773.37;1693090;84;21027;-80
2021/09/01 07:27:53;;;;;;;8.05;7.25;;;;;;;12.40;96.88;96773.80;1690873;84;22360;-80
2021/09/01 07:30:19;;;;;;;6.97;6.25;;;;;;;12.44;96.57;96774.23;1684535;84;21157;-80
2021/09/01 07:32:44;;;;;;;6.75;6.15;;;;;;;12.42;96.23;96783.55;1702758;84;21118;-80
2021/09/01 07:35:10;;;;;;;8.65;7.55;;;;;;;12.40;96.42;96788.14;1694498;84;21083;-80
2021/09/01 07:37:48;;;;;;;9.25;8.35;;;;;;;12.42;96.58;96791.86;1701170;84;21132;-80
2021/09/01 07:40:15;;;;;;;11.60;10.40;;;;;;;12.43;96.65;96796.08;1703680;84;21473;-80
2021/09/01 07:42:43;;;;;;;8.90;8.05;;;;;;;12.42;96.67;96805.70;1702923;84;21066;-80
2021/09/01 07:45:10;;;;;;;11.70;9.18;;;;;;;12.42;96.51;96811.41;1673379;84;21373;-79
2021/09/01 07:47:35;;;;;;;11.48;10.35;;;;;;;12.41;96.44;96807.99;1688234;84;21030;-79
2021/09/01 07:50:03;;;;;;;8.40;7.60;;;;;;;12.46;96.76;96813.45;1697297;84;21023;-80
2021/09/01 07:52:29;;;;;;;8.90;8.00;;;;;;;12.46;96.39;96814.76;1693935;84;21442;-80
2021/09/01 07:54:55;;;;;;;8.93;8.03;;;;;;;12.47;96.41;96815.56;1686216;84;21023;-79
2021/09/01 07:57:21;;;;;;;8.58;7.78;;;;;;;12.50;96.44;96818.61;1702289;84;21390;-79
2021/09/01 07:59:47;;;;;;;8.95;8.05;;;;;;;12.52;96.25;96825.75;1703435;84;21126;-80
2021/09/01 08:02:13;;;;;;;8.35;7.58;;;;;;;12.52;96.29;96830.95;1695990;84;21122;-80
2021/09/01 08:04:39;;;;;;;7.92;7.15;;;;;;;12.58;96.57;96829.44;1693283;84;21102;-80
2021/09/01 08:07:05;;;;;;;8.45;7.10;;;;;;;12.56;96.06;96832.23;1686999;84;21079;-79
2021/09/01 08:09:30;;;;;;;8.85;7.90;;;;;;;12.51;95.93;96827.23;1701728;84;21622;-80
2021/09/01 08:11:56;;;;;;;7.37;6.67;;;;;;;12.47;96.31;96835.92;1691964;84;21496;-80
2021/09/01 08:14:23;;;;;;;8.20;7.35;;;;;;;12.46;96.24;96836.11;1695451;84;21139;-80
2021/09/01 08:16:49;;;;;;;7.85;7.05;;;;;;;12.47;96.46;96835.92;1703812;84;21420;-79
2021/09/01 08:19:14;;;;;;;8.40;7.60;;;;;;;12.49;96.50;96841.75;1684667;84;21126;-80
2021/09/01 08:21:40;;;;;;;10.25;8.93;;;;;;;12.51;96.44;96844.98;1698793;83;21109;-80
2021/09/01 08:24:06;;;;;;;8.80;7.42;;;;;;;12.56;96.54;96847.06;1680586;84;21065;-80
2021/09/01 08:26:32;;;;;;;10.88;8.35;;;;;;;12.54;96.14;96845.95;1709848;83;21080;-80
2021/09/01 08:28:57;;;;;;;10.85;9.70;;;;;;;12.55;96.37;96846.26;1714154;83;21074;-80
2021/09/01 08:31:23;;;;;;;14.70;12.43;;;;;;;12.55;96.33;96851.47;1704465;83;21039;-80
2021/09/01 08:33:49;;;;;;;13.30;11.97;;;;;;;12.57;96.51;96857.31;1715159;83;21133;-80
2021/09/01 08:36:14;;;;;;;14.78;13.38;;;;;;;12.64;96.76;96858.68;1719276;83;21097;-79
2021/09/01 08:38:40;;;;;;;12.65;11.35;;;;;;;12.63;96.35;96865.69;1706304;83;21465;-79
2021/09/01 08:41:06;;;;;;;11.63;10.43;;;;;;;12.56;96.26;96873.94;1710195;83;21002;-80
2021/09/01 08:43:34;;;;;;;13.70;12.30;;;;;;;12.54;96.31;96873.31;1675818;84;21038;-80
2021/09/01 08:46:02;;;;;;;12.53;11.22;;;;;;;12.57;96.64;96878.16;1695446;83;20999;-80
2021/09/01 08:48:27;;;;;;;12.47;11.18;;;;;;;12.60;96.82;96876.98;1720979;82;21471;-80
2021/09/01 08:50:54;;;;;;;12.43;11.18;;;;;;;12.62;96.40;96882.82;1714573;82;21084;-80
2021/09/01 08:53:19;;;;;;;12.28;10.35;;;;;;;12.65;96.55;96886.86;1712123;82;21026;-80
2021/09/01 08:55:49;;;;;;;11.63;10.53;;;;;;;12.65;96.16;96881.64;1713179;83;21156;-79
2021/09/01 08:58:16;;;;;;;14.30;12.85;;;;;;;12.68;96.49;96902.13;1687693;83;21058;-80
2021/09/01 09:00:43;;;;;;;15.08;13.48;;;;;;;12.69;96.32;96897.23;1690056;84;21034;-80
2021/09/01 09:03:08;;;;;;;17.35;14.25;;;;;;;12.72;96.74;96901.61;1715162;83;21007;-80
2021/09/01 09:05:41;;;;;;;14.87;12.65;;;;;;;12.71;96.55;96897.39;1710997;83;21104;-80
2021/09/01 09:08:08;;;;;;;;;;;;;;;12.74;96.68;96913.97;1712712;83;20984;-80
2021/09/01 09:10:39;;;;;;;15.10;13.20;;;;;;;12.73;96.40;96907.14;1678959;84;20519;-80
2021/09/01 09:13:17;;;;;;;15.93;14.23;;;;;;;12.76;96.76;96907.27;1702767;84;21051;-80
2021/09/01 09:15:45;;;;;;;17.00;14.87;;;;;;;12.77;96.63;96912.79;1690457;84;21107;-80
2021/09/01 09:18:30;;;;;;;16.67;14.43;;;;;;;12.84;97.11;96917.58;1680384;84;21153;-80
2021/09/01 09:21:18;;;;;;;17.15;14.85;;;;;;;12.87;96.46;96919.84;1702173;84;21023;-80
2021/09/01 09:23:45;;;;;;;19.60;17.70;;;;;;;12.85;96.33;96923.10;1690667;84;21018;-80
2021/09/01 09:26:29;;;;;;;18.37;16.57;;;;;;;12.87;96.65;96923.26;1677326;84;21011;-80
2021/09/01 09:29:18;;;;;;;16.32;14.70;;;;;;;12.89;96.55;96919.16;1687391;84;21011;-80
2021/09/01 09:32:01;;;;;;;16.97;14.33;;;;;;;12.89;96.52;96925.19;1698144;84;21147;-80
2021/09/01 09:34:41;;;;;;;17.65;15.55;;;;;;;12.89;96.19;96917.86;1686738;84;21020;-80
2021/09/01 09:37:12;;;;;;;17.92;15.20;;;;;;;12.85;96.21;96918.72;1696499;84;21010;-80
2021/09/01 09:39:46;;;;;;;16.12;14.43;;;;;;;12.84;96.24;96924.09;1685412;84;21098;-80
2021/09/01 09:42:15;;;;;;;17.32;14.43;;;;;;;12.87;96.47;96926.36;1702213;84;21088;-80
2021/09/01 09:44:41;;;;;;;18.67;15.65;;;;;;;12.90;96.49;96931.20;1697389;84;21114;-80
2021/09/01 09:47:07;;;;;;;16.93;14.93;;;;;;;12.95;96.66;96927.55;1699143;84;21457;-80
2021/09/01 09:49:33;;;;;;;17.45;13.98;;;;;;;13.03;96.72;96934.47;1693090;84;21106;-80
2021/09/01 09:51:59;;;;;;;16.17;12.78;;;;;;;13.04;96.44;96933.48;1690577;84;21062;-80
2021/09/01 09:54:27;;;;;;;15.53;12.60;;;;;;;13.03;96.49;96930.06;1699449;84;21468;-79
2021/09/01 09:57:10;;;;;;;15.95;13.43;;;;;;;13.05;96.25;96935.09;1701809;83;21063;-80
2021/09/01 09:59:37;;;;;;;15.60;11.48;;;;;;;13.03;96.12;96941.00;1710123;83;21129;-80
2021/09/01 10:02:03;;;;;;;14.35;10.78;;;;;;;13.09;96.10;96945.47;1703281;83;21064;-80
2021/09/01 10:04:29;;;;;;;13.00;10.58;;;;;;;13.13;96.13;96950.13;1700510;83;21068;-80
2021/09/01 10:06:55;;;;;;;16.65;10.85;;;;;;;13.17;95.85;96942.23;1714639;82;21067;-80
2021/09/01 10:09:20;;;;;;;12.45;10.13;;;;;;;13.20;95.90;96945.03;1705794;83;21082;-80
2021/09/01 10:11:49;;;;;;;14.33;10.80;;;;;;;13.20;95.81;96954.98;1687440;84;21205;-80
2021/09/01 10:14:22;;;;;;;14.00;10.58;;;;;;;13.18;95.88;96949.13;1723529;83;21345;-80
2021/09/01 10:17:05;;;;;;;13.08;10.23;;;;;;;13.18;95.87;96947.83;1712308;83;21095;-80
2021/09/01 10:19:31;;;;;;;12.93;9.65;;;;;;;13.17;95.58;96951.87;1705721;84;21398;-80
2021/09/01 10:22:00;;;;;;;13.50;9.90;;;;;;;13.17;95.93;96962.30;1681185;84;21517;-80
2021/09/01 10:24:34;;;;;;;10.63;9.53;;;;;;;13.20;95.72;96961.99;1673663;84;21086;-80
2021/09/01 10:27:04;;;;;;;13.15;10.30;;;;;;;13.25;95.71;96969.27;1691912;84;21022;-80
2021/09/01 10:29:58;;;;;;;14.83;11.40;;;;;;;13.28;95.73;96964.97;1677570;84;20995;-80
2021/09/01 10:32:29;;;;;;;16.82;10.78;;;;;;;13.36;95.81;96971.41;1681341;84;21022;-80
2021/09/01 10:35:15;;;;;;;12.95;10.03;;;;;;;13.47;95.68;96971.70;1681783;84;21048;-80
2021/09/01 10:37:53;;;;;;;13.15;10.85;;;;;;;13.50;95.47;96969.22;1655684;84;21422;-80
2021/09/01 10:40:31;;;;;;;14.90;10.13;;;;;;;13.61;95.40;96972.65;1693356;83;21023;-80
2021/09/01 10:43:00;;;;;;;11.88;9.38;;;;;;;13.62;95.28;96976.88;1716121;83;21031;-80
2021/09/01 10:45:51;;;;;;;12.78;9.63;;;;;;;13.63;95.57;96981.11;1719194;83;21023;-80
2021/09/01 10:48:16;;;;;;;12.68;9.18;;;;;;;13.65;95.08;96982.22;1713113;83;21053;-80
2021/09/01 10:50:46;;;;;;;12.33;8.75;;;;;;;13.65;93.94;96984.83;1704829;84;21039;-80
2021/09/01 10:53:28;;;;;;;10.58;8.05;;;;;;;13.67;94.29;96989.40;1691640;83;21149;-80
2021/09/01 10:56:00;;;;;;;;;;;;;;;13.66;92.59;96986.45;1683437;84;21073;-80
2021/09/01 10:58:33;;;;;;;12.70;8.30;;;;;;;13.63;92.43;96986.33;1712842;83;20394;-80
2021/09/01 11:01:11;;;;;;;10.00;8.13;;;;;;;13.68;93.23;96990.52;1726570;83;21031;-80
2021/09/01 11:03:44;;;;;;;10.23;7.28;;;;;;;13.82;93.38;96994.84;1700949;83;21030;-79
2021/09/01 11:06:19;;;;;;;12.37;8.25;;;;;;;13.91;93.35;96994.23;1718012;83;21088;-80
2021/09/01 11:09:05;;;;;;;10.82;8.10;;;;;;;14.03;93.15;96995.35;1697898;84;21074;-80
2021/09/01 11:11:54;;;;;;;9.65;7.47;;;;;;;14.10;92.81;96998.01;1725166;83;21468;-79
2021/09/01 11:14:43;;;;;;;10.43;8.23;;;;;;;14.15;93.38;96993.02;1719593;83;20995;-79
2021/09/01 11:17:17;;;;;;;12.35;8.13;;;;;;;14.16;93.49;97006.42;1697565;83;21032;-80
2021/09/01 11:19:45;;;;;;;10.58;7.75;;;;;;;14.16;93.02;97013.45;1697232;84;21097;-80
2021/09/01 11:22:18;;;;;;;9.95;8.13;;;;;;;14.10;91.59;97017.11;1654109;85;21486;-80
2021/09/01 11:24:54;;;;;;;9.90;7.80;;;;;;;14.07;91.95;97016.69;1671936;84;21033;-80
2021/09/01 11:27:23;;;;;;;11.65;9.38;;;;;;;14.04;91.76;97024.41;1687403;84;21033;-79
2021/09/01 11:29:49;;;;;;;11.63;8.65;;;;;;;13.98;91.99;97021.22;1692187;84;21185;-79
2021/09/01 11:32:17;;;;;;;12.33;9.20;;;;;;;13.98;92.01;97021.71;1695497;84;21091;-80
2021/09/01 11:34:43;;;;;;;11.20;8.18;;;;;;;14.04;92.51;97019.18;1698629;84;21076;-80